Time;durP1;ratioP1;P1;durP2;ratioP2;P2;SDS_P1;SDS_P2;PMS_P1;PMS_P2;Temp;Humidity;BMP_temperature;BMP_pressure;BME280_temperature;BME280_humidity;BME280_pressure;Samples;Min_cycle;Max_cycle;Signal;HPM_P1;HPM_P2
2023/02/23 00:00:44;;;;;;;5.10;3.58;;;;;;;4.87;72.41;100075.13;6366716;27;20073;-76
2023/02/23 00:03:48;;;;;;;8.07;4.20;;;;;;;4.92;72.64;100073.19;6356787;27;20042;-76
2023/02/23 00:06:52;;;;;;;7.35;4.10;;;;;;;4.96;72.95;100072.19;6368752;27;20067;-76
2023/02/23 00:09:52;;;;;;;8.95;3.70;;;;;;;4.98;73.13;100076.41;6362481;27;20054;-76
2023/02/23 00:12:53;;;;;;;7.63;3.78;;;;;;;5.02;73.80;100070.22;6352135;27;20040;-76
2023/02/23 00:15:54;;;;;;;8.25;4.13;;;;;;;4.99;73.12;100061.72;6377913;27;20091;-76
2023/02/23 00:18:59;;;;;;;10.32;4.00;;;;;;;4.95;71.97;100076.50;6371297;27;20039;-76
2023/02/23 00:21:59;;;;;;;12.13;4.32;;;;;;;4.99;72.75;100067.75;6376646;27;20103;-76
2023/02/23 00:25:00;;;;;;;8.13;3.97;;;;;;;5.04;72.64;100071.00;6363299;27;20428;-76
2023/02/23 00:28:01;;;;;;;10.93;3.72;;;;;;;5.06;72.68;100068.34;6364158;27;20046;-76
2023/02/23 00:31:02;;;;;;;9.10;3.80;;;;;;;5.04;73.09;100060.66;6376417;27;20417;-76
2023/02/23 00:34:04;;;;;;;15.77;5.25;;;;;;;5.06;72.94;100068.34;6371552;27;20685;-76
2023/02/23 00:37:07;;;;;;;6.63;3.92;;;;;;;4.99;71.90;100066.91;6323636;27;1211104;-76
2023/02/23 00:40:14;;;;;;;8.60;3.72;;;;;;;5.04;71.51;100065.84;6356117;27;20047;-76
2023/02/23 00:43:17;;;;;;;4.85;3.50;;;;;;;4.95;72.54;100061.00;6374065;27;20044;-76
2023/02/23 00:46:22;;;;;;;4.25;2.83;;;;;;;5.02;71.51;100064.19;6372325;27;20035;-76
2023/02/23 00:49:23;;;;;;;10.13;3.38;;;;;;;5.01;71.59;100060.75;6347940;28;20491;-76
2023/02/23 00:52:24;;;;;;;21.30;5.38;;;;;;;4.96;73.07;100059.25;6359341;27;20092;-77
2023/02/23 00:55:24;;;;;;;7.20;3.50;;;;;;;4.92;72.53;100066.31;6372922;27;20039;-76
2023/02/23 00:58:26;;;;;;;20.15;5.10;;;;;;;4.93;71.18;100070.56;6355339;27;20511;-77
2023/02/23 01:01:27;;;;;;;16.48;4.88;;;;;;;4.89;72.38;100065.56;6366099;27;20043;-77
2023/02/23 01:04:29;;;;;;;11.43;4.60;;;;;;;4.99;73.11;100065.16;6372442;27;20043;-76
2023/02/23 01:07:29;;;;;;;7.88;4.43;;;;;;;5.00;71.88;100058.22;6361219;27;20047;-77
2023/02/23 01:10:30;;;;;;;12.95;4.45;;;;;;;5.01;72.60;100065.09;6366666;27;20104;-76
2023/02/23 01:13:37;;;;;;;8.15;4.35;;;;;;;5.03;71.19;100066.72;6353558;27;20484;-76
2023/02/23 01:16:38;;;;;;;4.90;3.60;;;;;;;5.03;71.28;100058.13;6388248;27;20118;-76
2023/02/23 01:19:39;;;;;;;19.90;4.57;;;;;;;5.01;71.23;100057.34;6371304;27;20038;-76
2023/02/23 01:22:41;;;;;;;8.30;4.85;;;;;;;4.91;71.68;100061.19;6349769;27;20032;-76
2023/02/23 01:25:44;;;;;;;7.30;3.13;;;;;;;4.89;71.01;100065.56;6345303;28;20101;-76
2023/02/23 01:28:52;;;;;;;7.18;4.07;;;;;;;4.78;69.51;100059.06;6359358;27;20451;-77
2023/02/23 01:31:55;;;;;;;13.02;4.38;;;;;;;4.84;70.34;100045.06;6352760;27;20036;-76
2023/02/23 01:34:56;;;;;;;5.78;3.67;;;;;;;4.82;69.43;100057.19;6349219;27;20174;-77
2023/02/23 01:37:59;;;;;;;12.25;4.13;;;;;;;4.78;69.64;100050.47;6372348;27;20173;-76
2023/02/23 01:41:00;;;;;;;12.77;4.00;;;;;;;4.82;68.85;100060.63;6370975;27;20043;-77
2023/02/23 01:44:22;;;;;;;10.13;3.28;;;;;;;4.79;69.56;100047.78;6353252;27;20047;-76
2023/02/23 01:47:25;;;;;;;11.02;4.47;;;;;;;4.68;69.58;100034.44;6343954;28;20480;-76
2023/02/23 01:50:32;;;;;;;5.75;3.05;;;;;;;4.64;69.87;100045.78;6345806;28;20042;-76
2023/02/23 01:53:37;;;;;;;9.60;3.97;;;;;;;4.60;68.73;100055.38;6396425;27;20499;-76
2023/02/23 01:56:43;;;;;;;7.38;3.08;;;;;;;4.60;69.84;100044.22;6369636;27;20039;-77
2023/02/23 01:59:46;;;;;;;7.28;3.78;;;;;;;4.55;68.47;100040.94;6365723;27;20446;-77
2023/02/23 02:02:47;;;;;;;6.53;4.18;;;;;;;4.60;68.35;100042.47;6352674;27;20044;-76
2023/02/23 02:05:52;;;;;;;6.80;3.65;;;;;;;4.60;69.68;100054.56;6345990;27;20483;-77
2023/02/23 02:08:57;;;;;;;4.95;2.97;;;;;;;4.63;68.75;100054.44;6344274;28;20073;-76
2023/02/23 02:12:01;;;;;;;8.10;4.15;;;;;;;4.65;69.94;100050.03;6347794;27;20035;-76
2023/02/23 02:15:06;;;;;;;7.07;4.28;;;;;;;4.63;69.71;100046.66;6379815;27;20095;-76
2023/02/23 02:18:29;;;;;;;7.30;4.43;;;;;;;4.58;69.35;100046.00;6383647;27;20039;-77
2023/02/23 02:21:30;;;;;;;16.75;4.93;;;;;;;4.53;68.23;100045.31;6369133;27;20168;-76
2023/02/23 02:24:37;;;;;;;9.38;5.00;;;;;;;4.54;68.07;100042.69;6365698;27;20411;-76
2023/02/23 02:27:46;;;;;;;8.07;4.85;;;;;;;4.59;69.14;100035.63;6364548;27;20039;-76
2023/02/23 02:31:29;;;;;;;10.00;4.28;;;;;;;4.59;69.40;100027.88;6384577;27;20042;-76
2023/02/23 02:35:00;;;;;;;5.97;3.63;;;;;;;4.55;69.59;100033.19;6315080;27;20055;-76
2023/02/23 02:38:32;;;;;;;10.48;4.72;;;;;;;4.48;69.22;100029.16;6361255;27;20051;-76
2023/02/23 02:41:52;;;;;;;8.68;3.90;;;;;;;4.46;69.39;100031.78;6365339;27;20070;-76
2023/02/23 02:45:06;;;;;;;9.88;4.45;;;;;;;4.45;69.93;100027.53;6353982;27;20035;-76
2023/02/23 02:48:20;;;;;;;7.45;3.83;;;;;;;4.42;70.86;100030.22;6372036;27;20035;-76
2023/02/23 02:51:31;;;;;;;7.63;3.90;;;;;;;4.35;70.22;100033.94;6360281;27;20380;-76
2023/02/23 02:54:52;;;;;;;7.53;4.10;;;;;;;4.33;69.55;100033.13;6363554;27;20035;-77
2023/02/23 02:57:57;;;;;;;8.70;4.05;;;;;;;4.26;69.90;100040.25;6363269;27;21307;-76
2023/02/23 04:19:56;;;;;;;5.30;2.75;;;;;;;3.36;69.60;100062.19;6363966;27;20035;-77
2023/02/23 04:22:57;;;;;;;6.40;2.85;;;;;;;3.40;69.40;100061.19;6355794;27;20452;-76
2023/02/23 04:25:58;;;;;;;6.25;2.75;;;;;;;3.30;69.38;100052.03;6350320;27;20122;-76
2023/02/23 04:28:59;;;;;;;7.43;3.17;;;;;;;3.26;69.91;100063.34;6349532;27;20051;-76
2023/02/23 04:32:00;;;;;;;4.18;2.03;;;;;;;3.17;70.04;100057.59;6396184;27;20446;-76
2023/02/23 04:35:00;;;;;;;4.13;2.70;;;;;;;3.18;70.98;100053.25;6372668;27;20491;-76
2023/02/23 04:38:07;;;;;;;3.45;2.63;;;;;;;3.14;70.07;100056.81;6368766;27;20104;-76
2023/02/23 04:41:08;;;;;;;4.15;2.58;;;;;;;3.06;70.59;100061.38;6366970;27;20471;-76
2023/02/23 04:44:09;;;;;;;5.40;2.78;;;;;;;3.06;70.51;100066.53;6352994;27;20062;-76
2023/02/23 04:47:12;;;;;;;7.30;3.63;;;;;;;3.05;71.09;100062.25;6351680;27;20039;-76
2023/02/23 04:50:14;;;;;;;5.90;3.33;;;;;;;3.01;70.96;100056.34;6361160;27;20043;-76
2023/02/23 04:53:15;;;;;;;10.07;3.53;;;;;;;3.00;70.75;100063.22;6367789;27;20510;-77
2023/02/23 04:56:16;;;;;;;4.57;3.03;;;;;;;2.95;71.50;100051.38;6366570;27;20040;-76
2023/02/23 04:59:17;;;;;;;8.35;3.75;;;;;;;2.83;71.83;100063.72;6369448;27;20039;-77
2023/02/23 05:02:18;;;;;;;3.75;2.40;;;;;;;2.80;71.71;100057.81;6349411;27;20050;-76
2023/02/23 05:05:20;;;;;;;5.32;2.78;;;;;;;2.83;71.80;100065.47;6348667;27;20040;-76
2023/02/23 05:08:21;;;;;;;4.55;2.22;;;;;;;2.81;71.91;100069.81;6372297;27;20035;-76
2023/02/23 05:11:21;;;;;;;5.75;1.92;;;;;;;2.78;71.47;100073.34;6361569;27;20566;-76
2023/02/23 05:14:22;;;;;;;4.93;2.75;;;;;;;2.77;71.81;100070.78;6349909;27;20044;-76
2023/02/23 05:17:23;;;;;;;8.50;2.80;;;;;;;2.74;72.09;100079.47;6355677;27;20039;-76
2023/02/23 05:20:24;;;;;;;8.35;3.05;;;;;;;2.70;72.76;100070.13;6356562;27;20456;-77
2023/02/23 05:23:25;;;;;;;6.70;3.28;;;;;;;2.61;72.80;100067.78;6366270;27;20047;-77
2023/02/23 05:26:28;;;;;;;5.05;2.63;;;;;;;2.56;72.59;100075.66;6362641;27;20035;-77
2023/02/23 05:29:29;;;;;;;5.40;2.85;;;;;;;2.65;72.58;100076.28;6345957;28;20039;-77
2023/02/23 05:32:30;;;;;;;8.70;3.25;;;;;;;2.67;72.18;100075.34;6370055;27;20047;-76
2023/02/23 05:35:31;;;;;;;6.50;2.70;;;;;;;2.70;71.84;100080.44;6372493;27;20039;-76
2023/02/23 05:38:31;;;;;;;6.90;3.22;;;;;;;2.68;72.32;100079.63;6369994;27;20075;-77
2023/02/23 05:41:32;;;;;;;10.02;4.43;;;;;;;2.68;72.44;100078.75;6359564;27;20055;-77
2023/02/23 05:44:33;;;;;;;9.73;5.45;;;;;;;2.69;72.12;100083.03;6345429;28;20046;-76
2023/02/23 05:47:37;;;;;;;9.15;4.40;;;;;;;2.71;72.31;100087.25;6346558;28;20447;-77
2023/02/23 05:50:38;;;;;;;7.38;3.67;;;;;;;2.78;71.79;100095.66;6353752;27;20035;-75
2023/02/23 05:53:41;;;;;;;8.80;4.90;;;;;;;2.77;72.12;100092.25;6365981;27;20084;-75
2023/02/23 05:56:44;;;;;;;6.57;3.15;;;;;;;2.80;72.16;100099.03;6411599;27;20046;-77
2023/02/23 05:59:48;;;;;;;8.10;3.80;;;;;;;2.85;72.34;100097.19;6397698;27;20099;-76
2023/02/23 06:02:51;;;;;;;14.95;4.35;;;;;;;2.79;71.94;100097.38;6396587;27;20095;-77
2023/02/23 06:05:56;;;;;;;5.93;3.83;;;;;;;2.76;72.92;100108.59;6397630;27;20042;-76
2023/02/23 06:08:57;;;;;;;8.18;4.57;;;;;;;2.73;72.10;100100.94;6397557;27;20073;-76
2023/02/23 06:11:59;;;;;;;15.90;5.00;;;;;;;2.80;71.95;100102.47;6397447;27;20035;-76
2023/02/23 06:15:00;;;;;;;18.95;5.55;;;;;;;2.86;72.03;100101.44;6397733;27;20074;-76
2023/02/23 06:18:03;;;;;;;11.05;4.22;;;;;;;2.94;71.48;100108.97;6397485;27;20450;-76
2023/02/23 06:21:05;;;;;;;10.60;4.25;;;;;;;2.98;71.30;100119.13;6397424;27;20047;-76
2023/02/23 06:24:05;;;;;;;14.88;4.45;;;;;;;3.05;71.43;100112.09;6397375;27;20042;-76
2023/02/23 06:27:06;;;;;;;10.30;4.10;;;;;;;3.15;71.58;100112.63;6397131;27;20035;-76
2023/02/23 06:30:07;;;;;;;10.80;3.25;;;;;;;3.24;71.17;100107.22;6396017;27;20034;-76
2023/02/23 06:33:08;;;;;;;11.30;5.00;;;;;;;3.32;71.21;100117.31;6397054;27;20046;-76
2023/02/23 06:36:09;;;;;;;8.98;3.33;;;;;;;3.28;70.59;100113.97;6396956;27;20039;-76
2023/02/23 06:39:11;;;;;;;10.07;3.47;;;;;;;3.39;70.98;100118.81;6395559;27;20077;-76
2023/02/23 06:42:12;;;;;;;6.65;2.67;;;;;;;3.53;69.64;100128.72;6395709;27;20125;-76
2023/02/23 06:45:12;;;;;;;11.60;3.67;;;;;;;3.65;69.73;100120.59;6396814;27;20039;-76
2023/02/23 06:48:13;;;;;;;28.30;4.40;;;;;;;3.76;69.47;100128.81;6396948;27;20039;-76
2023/02/23 06:51:14;;;;;;;7.65;3.90;;;;;;;3.80;68.52;100121.84;6400553;27;20109;-76
2023/02/23 06:54:15;;;;;;;14.43;3.75;;;;;;;4.03;69.24;100126.25;6400622;27;20076;-76
2023/02/23 06:57:16;;;;;;;4.13;2.88;;;;;;;4.17;68.98;100121.47;6400613;27;20091;-76
2023/02/23 07:00:17;;;;;;;7.30;3.67;;;;;;;4.20;68.35;100123.09;6401861;27;20041;-76
2023/02/23 07:03:18;;;;;;;3.88;2.38;;;;;;;4.26;68.21;100129.81;6403189;27;20117;-76
2023/02/23 07:06:19;;;;;;;9.23;3.97;;;;;;;4.37;68.13;100125.13;6403272;27;20039;-76
2023/02/23 07:09:20;;;;;;;9.15;3.97;;;;;;;4.27;67.16;100124.59;6401945;27;20035;-75
2023/02/23 07:12:21;;;;;;;10.75;3.10;;;;;;;4.29;66.60;100127.97;6403129;27;20406;-75
2023/02/23 07:15:22;;;;;;;4.18;2.40;;;;;;;4.41;67.38;100124.97;6402973;27;20267;-75
2023/02/23 07:18:23;;;;;;;5.78;4.03;;;;;;;4.50;66.86;100122.97;6401636;27;20043;-75
2023/02/23 07:21:23;;;;;;;5.47;3.20;;;;;;;4.59;66.96;100125.22;6402894;27;20111;-75
2023/02/23 07:24:27;;;;;;;8.52;3.50;;;;;;;4.69;65.95;100126.56;6401375;27;20107;-75
2023/02/23 07:27:27;;;;;;;7.05;2.88;;;;;;;4.82;66.44;100127.00;6401538;27;20046;-75
2023/02/23 07:30:28;;;;;;;16.58;4.25;;;;;;;5.12;66.29;100132.78;6402621;27;20034;-75
2023/02/23 07:33:29;;;;;;;7.75;3.00;;;;;;;5.24;66.36;100123.72;6400768;27;20039;-71
2023/02/23 07:36:29;;;;;;;6.53;3.13;;;;;;;5.43;65.03;100126.44;6400397;27;20537;-71
2023/02/23 07:39:33;;;;;;;4.55;2.92;;;;;;;5.74;65.37;100125.25;6399203;27;20520;-71
2023/02/23 07:42:33;;;;;;;11.23;4.75;;;;;;;5.96;64.62;100125.25;6374539;27;20043;-71
2023/02/23 07:45:37;;;;;;;5.63;3.10;;;;;;;6.07;63.02;100133.41;6374668;27;20055;-71
2023/02/23 07:48:44;;;;;;;6.38;3.88;;;;;;;6.33;64.45;100123.72;6373397;27;20546;-71
2023/02/23 07:51:45;;;;;;;5.53;2.85;;;;;;;6.41;62.50;100132.88;6374421;27;20051;-71
2023/02/23 07:54:45;;;;;;;5.82;2.92;;;;;;;6.59;62.85;100126.06;6372925;27;20384;-71
2023/02/23 07:57:46;;;;;;;10.77;3.40;;;;;;;6.74;61.69;100129.72;6373027;27;20055;-72
2023/02/23 08:00:47;;;;;;;6.13;2.53;;;;;;;6.74;60.56;100128.88;6372405;27;20042;-72
2023/02/23 08:03:49;;;;;;;5.55;3.08;;;;;;;6.91;62.40;100133.31;6372865;27;20039;-72
2023/02/23 08:06:49;;;;;;;4.77;2.53;;;;;;;6.82;61.06;100130.22;6369210;27;20051;-72
2023/02/23 08:09:52;;;;;;;11.57;3.83;;;;;;;6.97;61.95;100136.47;6354828;27;20044;-72
2023/02/23 08:12:53;;;;;;;;;;;;;;;7.13;60.00;100147.03;6345814;28;20040;-72
2023/02/23 08:15:53;;;;;;;6.43;3.05;;;;;;;7.26;60.04;100139.50;6348851;28;20337;-72
2023/02/23 08:18:59;;;;;;;5.88;3.20;;;;;;;7.56;59.29;100145.03;6348648;28;20047;-72
2023/02/23 08:22:07;;;;;;;5.68;3.10;;;;;;;7.77;60.70;100143.16;6347136;28;20044;-71
2023/02/23 08:25:08;;;;;;;5.60;2.93;;;;;;;7.91;57.32;100155.50;6347315;28;20047;-72
2023/02/23 08:28:09;;;;;;;8.27;3.50;;;;;;;8.10;58.74;100152.84;6347218;28;20044;-71
2023/02/23 08:31:11;;;;;;;8.45;3.65;;;;;;;8.36;56.61;100145.50;6347244;28;20047;-71
2023/02/23 08:34:13;;;;;;;9.45;3.35;;;;;;;8.53;55.81;100145.53;6347114;28;20118;-71
2023/02/23 08:37:13;;;;;;;5.63;2.65;;;;;;;8.61;55.98;100142.53;6347776;28;20411;-71
2023/02/23 08:40:17;;;;;;;5.45;2.42;;;;;;;8.86;55.17;100144.72;6347997;28;20040;-76
2023/02/23 08:43:17;;;;;;;12.30;4.72;;;;;;;9.10;55.55;100147.78;6348774;28;20043;-76
2023/02/23 08:46:19;;;;;;;8.88;4.22;;;;;;;9.34;55.82;100147.38;6348163;28;20120;-76
2023/02/23 08:49:21;;;;;;;24.07;3.93;;;;;;;9.45;53.72;100151.09;6349398;28;20449;-71
2023/02/23 08:52:22;;;;;;;8.15;3.58;;;;;;;9.67;52.75;100147.28;6348185;28;20035;-76
2023/02/23 08:55:23;;;;;;;7.05;3.38;;;;;;;9.85;52.91;100148.03;6347336;28;20044;-72
2023/02/23 08:58:24;;;;;;;8.85;2.22;;;;;;;9.83;50.89;100145.50;6346237;28;20097;-72
2023/02/23 09:01:27;;;;;;;9.48;4.40;;;;;;;9.95;52.80;100140.53;6347435;28;20048;-71
2023/02/23 09:04:33;;;;;;;10.10;3.60;;;;;;;10.22;53.49;100151.13;6348043;28;20092;-76
2023/02/23 09:07:39;;;;;;;6.13;2.65;;;;;;;10.31;49.30;100145.41;6348610;28;20085;-76
2023/02/23 09:10:42;;;;;;;5.40;2.35;;;;;;;10.15;50.60;100152.41;6347903;28;20050;-72
2023/02/23 09:13:45;;;;;;;5.82;2.85;;;;;;;10.13;49.63;100154.25;6347578;28;20043;-76
2023/02/23 09:16:46;;;;;;;4.53;2.67;;;;;;;10.01;49.69;100151.44;6345902;28;20047;-76
2023/02/23 09:19:49;;;;;;;5.72;2.75;;;;;;;10.10;49.91;100157.88;6346112;28;20399;-76
2023/02/23 09:22:50;;;;;;;2.03;1.45;;;;;;;9.87;48.92;100148.78;6347345;28;20047;-76
2023/02/23 09:25:50;;;;;;;3.05;1.88;;;;;;;10.02;49.45;100152.28;6347454;28;20119;-76
2023/02/23 09:28:51;;;;;;;11.00;2.67;;;;;;;9.93;51.54;100153.63;6348380;28;20074;-76
2023/02/23 09:31:52;;;;;;;4.18;2.03;;;;;;;10.38;49.97;100151.94;6345934;28;20472;-71
2023/02/23 09:34:53;;;;;;;7.50;2.60;;;;;;;10.58;50.41;100157.75;6346530;28;20035;-71
2023/02/23 09:37:55;;;;;;;5.60;2.75;;;;;;;10.63;49.46;100153.13;6349693;27;20104;-71
2023/02/23 09:40:56;;;;;;;6.35;2.40;;;;;;;10.86;49.07;100157.78;6360891;27;20099;-71
2023/02/23 09:44:18;;;;;;;17.55;3.05;;;;;;;10.89;48.49;100151.53;6359017;27;20118;-72
2023/02/23 09:47:21;;;;;;;6.82;2.80;;;;;;;10.70;47.56;100151.81;6364007;27;20043;-71
2023/02/23 09:50:25;;;;;;;3.75;1.88;;;;;;;10.76;47.73;100156.66;6362950;27;20102;-71
2023/02/23 09:53:29;;;;;;;5.32;2.58;;;;;;;11.23;49.28;100158.13;6370502;27;20150;-71
2023/02/23 09:56:37;;;;;;;6.47;2.38;;;;;;;11.34;46.27;100159.25;6365623;27;20058;-72
2023/02/23 09:59:38;;;;;;;4.15;2.10;;;;;;;11.37;46.63;100159.91;6370385;27;20069;-72
2023/02/23 10:03:04;;;;;;;7.15;2.22;;;;;;;11.22;47.71;100150.38;6370417;27;20050;-72
2023/02/23 10:06:09;;;;;;;4.95;1.88;;;;;;;11.41;47.02;100152.72;6360336;27;20039;-72
2023/02/23 10:09:20;;;;;;;3.50;1.83;;;;;;;11.39;46.12;100157.19;6357367;27;20130;-72
2023/02/23 10:12:29;;;;;;;6.78;2.47;;;;;;;11.19;46.20;100153.22;6370214;27;20134;-73
2023/02/23 10:15:42;;;;;;;8.95;2.80;;;;;;;11.31;47.15;100160.28;6360553;27;20544;-73
2023/02/23 10:18:59;;;;;;;8.70;2.35;;;;;;;11.44;45.74;100149.88;6371477;27;20046;-73
2023/02/23 10:22:06;;;;;;;15.63;5.07;;;;;;;11.83;49.28;100146.50;6363371;27;20415;-73
2023/02/23 10:25:13;;;;;;;9.65;3.55;;;;;;;11.57;46.96;100145.59;6349552;28;20091;-73
2023/02/23 10:28:17;;;;;;;6.32;2.95;;;;;;;11.88;46.22;100148.81;6351095;28;20115;-72
2023/02/23 10:31:30;;;;;;;16.88;6.93;;;;;;;11.86;46.92;100142.84;6355831;27;20035;-72
2023/02/23 10:34:33;;;;;;;;;;;;;;;12.07;46.82;100141.50;6367728;27;20046;-72
2023/02/23 10:37:33;;;;;;;12.20;3.13;;;;;;;12.30;45.57;100128.66;6376236;27;19969;-74
2023/02/23 10:40:35;;;;;;;6.13;2.20;;;;;;;11.84;44.49;100135.13;6374788;27;20823;-72
2023/02/23 10:43:36;;;;;;;9.55;2.38;;;;;;;12.28;46.02;100128.75;6365412;27;20051;-72
2023/02/23 10:46:39;;;;;;;4.22;2.55;;;;;;;12.19;44.12;100132.00;6376249;27;20077;-72
2023/02/23 10:49:54;;;;;;;8.10;3.45;;;;;;;12.12;47.11;100122.03;6375957;27;20043;-72
2023/02/23 10:53:03;;;;;;;7.38;2.47;;;;;;;12.25;44.49;100115.03;6363039;27;20095;-72
2023/02/23 10:56:06;;;;;;;6.63;2.35;;;;;;;12.38;45.92;100110.66;6370555;27;20054;-72
2023/02/23 10:59:18;;;;;;;7.15;2.40;;;;;;;12.25;44.46;100108.06;6359135;27;20118;-72
2023/02/23 11:02:26;;;;;;;4.07;1.90;;;;;;;12.36;43.83;100096.03;6370980;27;20391;-72
2023/02/23 11:05:35;;;;;;;6.28;3.10;;;;;;;12.36;44.17;100104.69;6363160;27;20036;-72
2023/02/23 11:08:37;;;;;;;6.90;2.33;;;;;;;12.41;44.58;100101.78;6350027;28;20115;-72
2023/02/23 11:11:37;;;;;;;3.77;2.13;;;;;;;12.25;45.05;100099.34;6348847;28;20070;-72
2023/02/23 11:14:38;;;;;;;3.45;2.28;;;;;;;12.48;45.60;100100.44;6350006;28;20044;-72
2023/02/23 11:17:39;;;;;;;8.10;2.88;;;;;;;12.39;44.28;100094.00;6373232;27;20063;-72
2023/02/23 11:20:42;;;;;;;13.23;3.65;;;;;;;12.82;45.50;100092.84;6375404;27;20122;-72
2023/02/23 11:23:43;;;;;;;4.10;2.15;;;;;;;12.57;45.74;100083.25;6375295;27;20043;-73
2023/02/23 11:26:46;;;;;;;7.68;2.72;;;;;;;12.99;45.34;100087.28;6375368;27;20505;-72
2023/02/23 11:29:52;;;;;;;5.60;2.35;;;;;;;12.97;44.19;100080.47;6351146;27;20134;-73
2023/02/23 11:33:09;;;;;;;4.82;2.42;;;;;;;12.98;45.01;100079.53;6361518;27;20070;-73
2023/02/23 11:36:24;;;;;;;5.00;2.65;;;;;;;12.87;44.72;100080.28;6368571;27;20047;-73
2023/02/23 11:39:25;;;;;;;5.07;2.83;;;;;;;12.83;45.01;100078.81;6373549;27;20047;-73
2023/02/23 11:42:31;;;;;;;8.93;2.92;;;;;;;13.32;45.05;100079.75;6408363;27;20129;-71
2023/02/23 11:45:48;;;;;;;5.45;2.53;;;;;;;13.36;44.87;100076.81;6373580;27;20058;-71
2023/02/23 11:48:58;;;;;;;5.90;3.17;;;;;;;13.32;43.90;100079.75;6374892;27;20046;-71
2023/02/23 11:52:02;;;;;;;6.53;2.60;;;;;;;13.23;44.13;100073.38;6373449;27;20418;-71
2023/02/23 11:55:06;;;;;;;5.07;2.40;;;;;;;13.19;45.99;100069.28;6374795;27;20035;-71
2023/02/23 11:58:21;;;;;;;7.80;3.28;;;;;;;13.37;45.44;100065.38;6374513;27;20050;-71
2023/02/23 12:01:40;;;;;;;6.43;2.40;;;;;;;13.00;44.51;100075.03;6373326;27;20047;-71
2023/02/23 12:04:46;;;;;;;6.13;2.50;;;;;;;12.98;45.82;100061.19;6374393;27;20047;-71
2023/02/23 12:07:53;;;;;;;7.22;2.55;;;;;;;12.86;46.24;100058.47;6374272;27;20514;-72
2023/02/23 12:10:58;;;;;;;6.22;2.28;;;;;;;13.14;44.55;100063.53;6374141;27;20407;-71
2023/02/23 12:14:09;;;;;;;5.28;2.63;;;;;;;13.19;44.63;100062.25;6373102;27;20066;-72
2023/02/23 12:17:16;;;;;;;8.23;2.53;;;;;;;13.27;44.27;100053.88;6374045;27;20039;-72
2023/02/23 12:20:26;;;;;;;11.13;2.88;;;;;;;13.35;44.43;100055.97;6373980;27;20062;-72
2023/02/23 12:23:32;;;;;;;3.20;2.00;;;;;;;12.95;43.71;100051.78;6372710;27;20035;-72
2023/02/23 12:26:50;;;;;;;4.95;2.65;;;;;;;12.75;44.76;100053.19;6363822;27;20479;-72
2023/02/23 12:30:16;;;;;;;8.43;2.95;;;;;;;12.99;45.82;100049.75;6373698;27;20467;-72
2023/02/23 12:33:28;;;;;;;4.45;2.70;;;;;;;13.24;43.27;100046.22;6372478;27;20443;-72
2023/02/23 12:36:41;;;;;;;6.05;2.88;;;;;;;13.23;45.11;100045.38;6373249;27;20427;-75
2023/02/23 12:39:50;;;;;;;9.55;2.80;;;;;;;13.22;43.63;100037.63;6375638;27;20403;-75
2023/02/23 12:43:07;;;;;;;6.25;3.05;;;;;;;12.63;43.95;100038.31;6375599;27;20047;-75
2023/02/23 12:46:19;;;;;;;6.55;2.88;;;;;;;13.05;44.14;100036.22;6373675;27;20043;-76
2023/02/23 12:49:39;;;;;;;5.30;2.22;;;;;;;13.07;44.10;100032.56;6375310;27;20106;-76
2023/02/23 12:52:47;;;;;;;4.10;2.50;;;;;;;13.06;45.50;100036.13;6363365;27;20407;-76
2023/02/23 12:56:17;;;;;;;5.93;2.42;;;;;;;13.13;45.66;100027.81;6349731;28;20039;-76
2023/02/23 12:59:45;;;;;;;4.20;2.15;;;;;;;13.18;46.53;100030.94;6342860;28;20491;-76
2023/02/23 13:03:15;;;;;;;6.55;2.78;;;;;;;13.34;44.86;100033.31;6345717;28;20051;-75
2023/02/23 13:06:54;;;;;;;8.88;2.92;;;;;;;13.28;43.65;100030.19;6347849;28;20052;-76
2023/02/23 13:10:02;;;;;;;4.05;2.63;;;;;;;13.02;43.75;100026.81;6341660;28;20066;-76
2023/02/23 13:13:32;;;;;;;3.72;2.17;;;;;;;12.67;44.22;100027.53;6349044;28;20066;-75
2023/02/23 13:16:59;;;;;;;8.82;2.85;;;;;;;12.72;44.49;100026.38;6347998;28;20559;-75
2023/02/23 13:20:09;;;;;;;8.32;2.42;;;;;;;12.57;45.42;100020.44;6349226;28;20501;-76
2023/02/23 13:23:15;;;;;;;7.65;2.65;;;;;;;12.66;44.72;100025.00;6348947;28;20044;-76
2023/02/23 13:26:35;;;;;;;5.82;2.40;;;;;;;12.84;44.62;100026.31;6347653;28;20097;-75
2023/02/23 13:29:41;;;;;;;7.90;2.85;;;;;;;12.87;46.57;100014.81;6348736;28;20051;-75
2023/02/23 13:32:44;;;;;;;5.38;3.33;;;;;;;12.64;46.26;100025.13;6348738;28;20039;-75
2023/02/23 13:35:44;;;;;;;5.03;2.25;;;;;;;12.90;45.46;100020.66;6347347;28;20549;-76
2023/02/23 13:38:57;;;;;;;5.00;2.33;;;;;;;12.62;44.99;100019.16;6347059;28;20070;-76
2023/02/23 13:42:29;;;;;;;15.55;3.65;;;;;;;12.55;45.30;100024.94;6348932;28;20044;-75
2023/02/23 13:45:39;;;;;;;4.30;2.72;;;;;;;12.52;45.66;100012.91;6347267;28;20407;-75
2023/02/23 13:48:58;;;;;;;12.45;4.78;;;;;;;12.59;44.96;100016.75;6347288;28;20067;-75
2023/02/23 13:52:29;;;;;;;11.25;3.90;;;;;;;12.67;45.23;100016.22;6347103;28;20063;-75
2023/02/23 13:55:35;;;;;;;6.30;4.00;;;;;;;12.84;43.80;100009.78;6340908;28;20064;-71
2023/02/23 13:58:44;;;;;;;5.35;2.83;;;;;;;12.83;44.57;100014.19;6344580;28;20047;-72
2023/02/23 14:01:48;;;;;;;5.43;2.65;;;;;;;13.02;45.55;100005.84;6345989;28;20079;-71
2023/02/23 14:04:55;;;;;;;4.82;2.90;;;;;;;12.88;45.49;100008.63;6345970;28;20457;-72
2023/02/23 14:08:04;;;;;;;9.38;2.63;;;;;;;12.74;44.24;100006.16;6344757;28;20043;-72
2023/02/23 14:11:05;;;;;;;6.45;3.13;;;;;;;12.90;43.80;100002.31;6344547;28;20059;-71
2023/02/23 14:14:15;;;;;;;9.48;5.07;;;;;;;12.89;44.99;100002.47;6345884;28;20043;-72
2023/02/23 14:17:17;;;;;;;7.18;3.33;;;;;;;13.14;45.69;100003.28;6345785;28;20579;-71
2023/02/23 14:20:38;;;;;;;7.93;2.88;;;;;;;13.03;46.14;100004.06;6345615;28;20040;-72
2023/02/23 14:24:03;;;;;;;6.20;3.10;;;;;;;12.96;44.70;100001.06;6345703;28;20046;-71
2023/02/23 14:27:09;;;;;;;7.18;2.92;;;;;;;12.77;44.60;100000.72;6344906;28;20066;-75
2023/02/23 14:30:10;;;;;;;9.18;3.05;;;;;;;12.74;44.67;99995.69;6346607;28;20050;-75
2023/02/23 14:33:48;;;;;;;4.65;2.85;;;;;;;12.62;45.23;100000.84;6347481;28;20040;-75
2023/02/23 14:36:54;;;;;;;4.03;2.38;;;;;;;12.79;45.21;99993.59;6347332;28;20044;-75
2023/02/23 14:40:09;;;;;;;7.93;2.80;;;;;;;12.75;45.93;99992.97;6346467;28;20063;-75
2023/02/23 14:43:34;;;;;;;7.60;3.03;;;;;;;12.56;45.47;99995.19;6346480;28;20495;-75
2023/02/23 14:46:36;;;;;;;6.25;2.80;;;;;;;12.72;44.21;99997.56;6346494;28;20046;-75
2023/02/23 14:49:42;;;;;;;6.93;3.40;;;;;;;12.51;44.58;99995.50;6346116;28;20047;-76
2023/02/23 14:52:43;;;;;;;5.53;2.60;;;;;;;12.28;44.96;99986.66;6346254;28;20407;-75
2023/02/23 14:55:45;;;;;;;7.55;3.70;;;;;;;12.25;45.30;99987.72;6346300;28;20037;-75
2023/02/23 14:58:54;;;;;;;6.65;3.42;;;;;;;11.99;45.92;99973.78;6347471;28;20039;-75
2023/02/23 15:02:01;;;;;;;6.57;2.55;;;;;;;12.19;46.81;99976.81;6347354;28;20048;-75
2023/02/23 15:05:16;;;;;;;4.00;2.38;;;;;;;11.94;45.63;99972.44;6347179;28;20114;-75
2023/02/23 15:08:22;;;;;;;5.80;2.85;;;;;;;11.55;46.44;99972.38;6346103;28;20122;-75
2023/02/23 15:11:25;;;;;;;9.75;4.15;;;;;;;11.56;47.86;99971.41;6350037;28;20040;-75
2023/02/23 15:14:29;;;;;;;10.48;3.60;;;;;;;11.47;47.52;99975.50;6350698;28;20035;-75
2023/02/23 15:17:32;;;;;;;5.65;2.78;;;;;;;11.42;47.32;99974.09;6350583;28;20063;-75
2023/02/23 15:20:33;;;;;;;8.55;3.78;;;;;;;11.27;47.75;99978.56;6384909;27;20062;-75
2023/02/23 15:23:38;;;;;;;5.47;3.17;;;;;;;11.26;47.77;99980.34;6351659;28;20479;-75
2023/02/23 15:26:42;;;;;;;8.52;3.08;;;;;;;11.13;46.88;99979.44;6350468;28;20040;-75
2023/02/23 15:29:43;;;;;;;8.82;4.55;;;;;;;11.03;48.39;99976.59;6351479;28;20425;-75
2023/02/23 15:32:44;;;;;;;7.28;3.85;;;;;;;10.98;47.87;99978.66;6350489;28;20038;-75
2023/02/23 15:35:49;;;;;;;11.60;3.88;;;;;;;10.90;47.51;99973.09;6351332;28;20085;-75
2023/02/23 15:38:54;;;;;;;7.40;3.80;;;;;;;10.83;48.28;99974.41;6349698;28;20050;-75
2023/02/23 15:41:55;;;;;;;9.80;4.25;;;;;;;10.73;48.42;99974.16;6350021;28;20039;-75
2023/02/23 15:45:01;;;;;;;11.27;4.75;;;;;;;10.59;49.63;99972.41;6351099;28;20039;-75
2023/02/23 15:48:17;;;;;;;8.57;3.88;;;;;;;10.40;50.18;99974.50;6333363;28;20051;-75